createdAt,value
2018-02-09T00:00:01.700Z,13.70
2018-02-09T00:01:04.189Z,15.50
2018-02-09T00:02:06.672Z,14.95
2018-02-09T00:03:09.172Z,14.45
2018-02-09T00:04:11.660Z,13.10
2018-02-09T00:05:14.138Z,13.80
2018-02-09T00:06:16.615Z,13.75
2018-02-09T00:07:19.104Z,14.10
2018-02-09T00:08:21.615Z,14.20
2018-02-09T00:09:24.118Z,13.88
2018-02-09T00:10:26.627Z,13.52
2018-02-09T00:11:29.159Z,14.30
2018-02-09T00:12:31.645Z,14.90
2018-02-09T00:13:34.156Z,13.45
2018-02-09T00:14:36.624Z,13.57
2018-02-09T00:15:39.116Z,14.38
2018-02-09T00:16:41.612Z,14.65
2018-02-09T00:17:44.094Z,13.62
2018-02-09T00:18:46.594Z,13.00
2018-02-09T00:19:49.070Z,12.95
2018-02-09T00:20:51.573Z,12.90
2018-02-09T00:21:54.050Z,12.68
2018-02-09T00:22:56.543Z,13.62
2018-02-09T00:23:59.123Z,13.07
2018-02-09T00:25:01.602Z,13.13
2018-02-09T00:26:04.097Z,12.45
2018-02-09T00:27:06.623Z,12.88
2018-02-09T00:28:09.116Z,13.80
2018-02-09T00:29:11.590Z,13.05
2018-02-09T00:30:14.088Z,12.40
2018-02-09T00:31:16.593Z,12.68
2018-02-09T00:32:19.104Z,13.85
2018-02-09T00:33:21.582Z,11.77
2018-02-09T00:34:24.052Z,13.40
2018-02-09T00:35:26.552Z,12.55
2018-02-09T00:36:29.049Z,13.50
2018-02-09T00:37:31.529Z,12.32
2018-02-09T00:38:34.030Z,12.90
2018-02-09T00:39:36.520Z,12.45
2018-02-09T00:40:38.999Z,12.45
2018-02-09T00:41:41.493Z,12.15
2018-02-09T00:42:43.985Z,11.80
2018-02-09T00:43:46.463Z,12.10
2018-02-09T00:44:48.956Z,12.07
2018-02-09T00:45:51.438Z,12.35
2018-02-09T00:46:53.929Z,11.90
2018-02-09T00:47:56.407Z,12.77
2018-02-09T00:48:58.905Z,12.25
2018-02-09T00:50:01.396Z,11.20
2018-02-09T00:51:03.872Z,11.30
2018-02-09T00:52:06.351Z,11.60
2018-02-09T00:53:08.848Z,12.07
2018-02-09T00:54:11.340Z,11.07
2018-02-09T00:55:13.826Z,11.73
2018-02-09T00:56:16.325Z,11.50
2018-02-09T00:57:18.847Z,11.40
2018-02-09T00:58:21.327Z,10.70
2018-02-09T00:59:23.829Z,11.85
2018-02-09T01:00:26.321Z,10.25
2018-02-09T01:01:28.803Z,11.40
2018-02-09T01:02:31.298Z,10.60
2018-02-09T01:03:33.778Z,11.75
2018-02-09T01:04:36.277Z,11.63
2018-02-09T01:05:38.777Z,11.00
2018-02-09T01:06:41.263Z,10.95
2018-02-09T01:07:43.751Z,10.95
2018-02-09T01:08:46.243Z,10.73
2018-02-09T01:09:48.737Z,10.52
2018-02-09T01:10:51.232Z,10.45
2018-02-09T01:11:53.715Z,11.57
2018-02-09T01:12:56.194Z,10.38
2018-02-09T01:13:58.699Z,10.55
2018-02-09T01:15:01.171Z,9.40
2018-02-09T01:16:03.652Z,11.50
2018-02-09T01:17:06.144Z,10.88
2018-02-09T01:18:08.624Z,10.10
2018-02-09T01:19:11.101Z,9.93
2018-02-09T01:20:13.583Z,10.50
2018-02-09T01:21:16.062Z,10.57
2018-02-09T01:22:18.543Z,10.75
2018-02-09T01:23:21.019Z,9.60
2018-02-09T01:24:23.502Z,9.80
2018-02-09T01:25:25.984Z,10.15
2018-02-09T01:26:28.480Z,9.90
2018-02-09T01:27:30.977Z,11.15
2018-02-09T01:28:33.465Z,10.90
2018-02-09T01:29:35.957Z,9.90
2018-02-09T01:30:38.448Z,10.10
2018-02-09T01:31:40.940Z,10.02
2018-02-09T01:32:43.441Z,9.60
2018-02-09T01:33:45.915Z,9.75
2018-02-09T01:34:48.439Z,9.73
2018-02-09T01:35:50.965Z,10.37
2018-02-09T01:36:53.451Z,9.05
2018-02-09T01:37:55.940Z,10.55
2018-02-09T01:38:58.415Z,8.95
2018-02-09T01:40:00.894Z,9.35
2018-02-09T01:41:03.383Z,9.70
2018-02-09T01:42:05.858Z,9.50
2018-02-09T01:43:08.347Z,9.65
2018-02-09T01:44:10.841Z,10.45
2018-02-09T01:45:13.332Z,9.20
2018-02-09T01:46:15.820Z,9.90
2018-02-09T01:47:18.294Z,9.57
2018-02-09T01:48:20.780Z,9.85
2018-02-09T01:49:23.257Z,9.90
2018-02-09T01:50:25.738Z,9.68
2018-02-09T01:51:28.215Z,9.13
2018-02-09T01:52:30.700Z,9.35
2018-02-09T01:53:33.178Z,10.02
2018-02-09T01:54:35.667Z,8.40
2018-02-09T01:55:38.142Z,8.55
2018-02-09T01:56:40.623Z,10.23
2018-02-09T01:57:43.104Z,9.13
2018-02-09T01:58:45.570Z,9.63
2018-02-09T01:59:48.057Z,9.63
2018-02-09T02:00:50.534Z,9.13
2018-02-09T02:01:53.024Z,9.18
2018-02-09T02:02:55.544Z,10.07
2018-02-09T02:03:58.010Z,8.93
2018-02-09T02:05:00.497Z,9.70
2018-02-09T02:06:02.975Z,9.85
2018-02-09T02:07:05.464Z,9.15
2018-02-09T02:08:07.945Z,9.80
2018-02-09T02:09:10.436Z,8.80
2018-02-09T02:10:12.921Z,9.07
2018-02-09T02:11:15.399Z,8.68
2018-02-09T02:12:17.888Z,8.45
2018-02-09T02:13:20.363Z,9.20
2018-02-09T02:14:22.853Z,8.52
2018-02-09T02:15:25.345Z,9.50
2018-02-09T02:16:27.819Z,9.00
2018-02-09T02:17:30.342Z,9.80
2018-02-09T02:18:32.823Z,9.30
2018-02-09T02:19:35.308Z,8.80
2018-02-09T02:20:37.801Z,8.45
2018-02-09T02:21:40.274Z,9.02
2018-02-09T02:22:42.754Z,8.15
2018-02-09T02:23:45.241Z,8.25
2018-02-09T02:24:47.721Z,8.15
2018-02-09T02:25:50.217Z,8.27
2018-02-09T02:26:52.689Z,8.43
2018-02-09T02:27:55.166Z,8.20
2018-02-09T02:28:57.643Z,8.52
2018-02-09T02:30:00.123Z,7.90
2018-02-09T02:31:02.591Z,7.62
2018-02-09T02:32:05.081Z,7.95
2018-02-09T02:33:07.569Z,8.50
2018-02-09T02:34:10.054Z,8.35
2018-02-09T02:35:12.536Z,7.78
2018-02-09T02:36:15.014Z,7.70
2018-02-09T02:37:17.506Z,8.07
2018-02-09T02:38:19.998Z,8.40
2018-02-09T02:39:22.502Z,7.35
2018-02-09T02:40:25.016Z,8.27
2018-02-09T02:41:27.483Z,8.27
2018-02-09T02:42:29.968Z,8.50
2018-02-09T02:43:32.456Z,8.55
2018-02-09T02:44:34.953Z,7.50
2018-02-09T02:45:37.444Z,8.10
2018-02-09T02:46:39.937Z,8.02
2018-02-09T02:47:42.407Z,8.43
2018-02-09T02:48:44.887Z,8.05
2018-02-09T02:49:47.402Z,7.80
2018-02-09T02:50:49.892Z,7.75
2018-02-09T02:51:52.387Z,7.87
2018-02-09T02:52:54.858Z,7.62
2018-02-09T02:53:57.346Z,8.38
2018-02-09T02:54:59.811Z,7.17
2018-02-09T02:56:02.296Z,7.97
2018-02-09T02:57:04.785Z,7.72
2018-02-09T02:58:07.260Z,7.60
2018-02-09T02:59:09.757Z,6.97
2018-02-09T03:00:12.241Z,7.10
2018-02-09T03:01:14.729Z,7.75
2018-02-09T03:02:17.216Z,6.90
2018-02-09T03:03:19.709Z,7.60
2018-02-09T03:04:22.192Z,7.25
2018-02-09T03:05:24.689Z,7.95
2018-02-09T03:06:27.159Z,6.75
2018-02-09T03:07:29.626Z,7.82
2018-02-09T03:08:32.094Z,7.85
2018-02-09T03:09:34.575Z,7.10
2018-02-09T03:10:37.066Z,7.03
2018-02-09T03:11:39.552Z,7.00
2018-02-09T03:12:42.027Z,7.15
2018-02-09T03:13:44.529Z,7.95
2018-02-09T03:14:47.018Z,6.78
2018-02-09T03:15:49.511Z,7.10
2018-02-09T03:16:51.990Z,7.62
2018-02-09T03:17:54.462Z,7.32
2018-02-09T03:18:56.961Z,7.87
2018-02-09T03:19:59.448Z,8.23
2018-02-09T03:21:01.938Z,8.65
2018-02-09T03:22:04.406Z,9.80
2018-02-09T03:23:06.878Z,8.70
2018-02-09T03:24:09.358Z,8.13
2018-02-09T03:25:11.846Z,8.95
2018-02-09T03:26:14.325Z,9.77
2018-02-09T03:27:16.819Z,9.15
2018-02-09T03:28:19.307Z,9.43
2018-02-09T03:29:21.802Z,9.95
2018-02-09T03:30:24.314Z,10.25
2018-02-09T03:31:26.813Z,10.37
2018-02-09T03:32:29.309Z,11.30
2018-02-09T03:33:31.792Z,12.23
2018-02-09T03:34:34.274Z,13.57
2018-02-09T03:35:36.777Z,13.45
2018-02-09T03:36:39.255Z,13.68
2018-02-09T03:37:41.746Z,13.32
2018-02-09T03:38:44.222Z,13.87
2018-02-09T03:39:46.709Z,12.60
2018-02-09T03:40:49.190Z,12.88
2018-02-09T03:41:51.671Z,12.55
2018-02-09T03:42:54.162Z,12.30
2018-02-09T03:43:56.661Z,12.57
2018-02-09T03:44:59.156Z,11.88
2018-02-09T03:46:01.645Z,11.90
2018-02-09T03:47:04.140Z,13.20
2018-02-09T03:48:06.624Z,11.47
2018-02-09T03:49:09.116Z,10.68
2018-02-09T03:50:11.617Z,11.90
2018-02-09T03:51:14.294Z,11.63
2018-02-09T03:52:16.975Z,11.15
2018-02-09T03:53:19.469Z,12.20
2018-02-09T03:54:21.962Z,10.13
2018-02-09T03:55:24.448Z,11.50
2018-02-09T03:56:26.933Z,10.30
2018-02-09T03:57:29.415Z,10.73
2018-02-09T03:58:31.900Z,10.68
2018-02-09T03:59:34.397Z,10.00
2018-02-09T04:00:36.896Z,11.00
2018-02-09T04:01:39.388Z,10.38
2018-02-09T04:02:41.879Z,10.15
2018-02-09T04:03:44.365Z,9.30
2018-02-09T04:04:46.852Z,9.32
2018-02-09T04:05:49.366Z,9.90
2018-02-09T04:06:51.845Z,9.80
2018-02-09T04:07:54.322Z,9.13
2018-02-09T04:08:56.795Z,9.10
2018-02-09T04:09:59.283Z,9.80
2018-02-09T04:11:01.759Z,9.52
2018-02-09T04:12:04.277Z,8.50
2018-02-09T04:13:06.759Z,9.07
2018-02-09T04:14:09.223Z,9.20
2018-02-09T04:15:11.717Z,9.18
2018-02-09T04:16:14.195Z,8.73
2018-02-09T04:17:16.688Z,9.35
2018-02-09T04:18:19.173Z,8.80
2018-02-09T04:19:21.669Z,7.80
2018-02-09T04:20:24.134Z,9.93
2018-02-09T04:21:26.624Z,8.10
2018-02-09T04:22:29.098Z,9.27
2018-02-09T04:23:31.593Z,8.68
2018-02-09T04:24:34.085Z,8.32
2018-02-09T04:25:36.577Z,8.70
2018-02-09T04:26:39.071Z,7.95
2018-02-09T04:27:41.554Z,8.60
2018-02-09T04:28:44.045Z,8.70
2018-02-09T04:29:46.525Z,8.73
2018-02-09T04:30:49.003Z,7.60
2018-02-09T04:31:51.487Z,9.00
2018-02-09T04:32:53.977Z,8.65
2018-02-09T04:33:56.473Z,8.02
2018-02-09T04:34:58.939Z,8.60
2018-02-09T04:36:01.428Z,7.07
2018-02-09T04:37:03.988Z,8.07
2018-02-09T04:38:06.462Z,8.57
2018-02-09T04:39:08.939Z,7.60
2018-02-09T04:40:11.429Z,7.22
2018-02-09T04:41:13.912Z,7.75
2018-02-09T04:42:16.379Z,7.80
2018-02-09T04:43:18.865Z,7.15
2018-02-09T04:44:21.345Z,7.53
2018-02-09T04:45:23.814Z,7.83
2018-02-09T04:46:26.290Z,7.37
2018-02-09T04:47:28.766Z,7.97
2018-02-09T04:48:31.235Z,7.77
2018-02-09T04:49:33.720Z,7.10
2018-02-09T04:50:36.194Z,7.90
2018-02-09T04:51:38.678Z,7.97
2018-02-09T04:52:41.170Z,7.25
2018-02-09T04:53:43.668Z,7.47
2018-02-09T04:54:46.145Z,6.40
2018-02-09T04:55:48.628Z,7.57
2018-02-09T04:56:51.113Z,6.80
2018-02-09T04:57:53.579Z,6.70
2018-02-09T04:58:56.046Z,7.30
2018-02-09T04:59:58.531Z,6.97
2018-02-09T05:01:01.024Z,7.10
2018-02-09T05:02:03.502Z,7.30
2018-02-09T05:03:05.980Z,6.85
2018-02-09T05:04:08.485Z,6.97
2018-02-09T05:05:10.997Z,6.40
2018-02-09T05:06:13.467Z,6.37
2018-02-09T05:07:15.927Z,7.07
2018-02-09T05:08:18.417Z,7.68
2018-02-09T05:09:20.985Z,6.32
2018-02-09T05:10:23.450Z,6.43
2018-02-09T05:11:25.923Z,6.70
2018-02-09T05:12:28.394Z,6.40
2018-02-09T05:13:30.879Z,7.25
2018-02-09T05:14:33.346Z,7.20
2018-02-09T05:15:35.824Z,6.73
2018-02-09T05:16:38.296Z,6.55
2018-02-09T05:17:40.832Z,7.00
2018-02-09T05:18:43.323Z,7.10
2018-02-09T05:19:45.802Z,6.72
2018-02-09T05:20:48.293Z,6.30
2018-02-09T05:21:50.791Z,6.95
2018-02-09T05:22:53.271Z,6.85
2018-02-09T05:23:55.757Z,5.45
2018-02-09T05:24:58.218Z,6.50
2018-02-09T05:26:00.686Z,6.03
2018-02-09T05:27:03.165Z,6.20
2018-02-09T05:28:05.643Z,5.87
2018-02-09T05:29:08.136Z,6.22
2018-02-09T05:30:10.621Z,6.22
2018-02-09T05:31:13.102Z,5.93
2018-02-09T05:32:15.583Z,6.28
2018-02-09T05:33:18.050Z,7.03
2018-02-09T05:34:20.514Z,7.07
2018-02-09T05:35:23.001Z,6.53
2018-02-09T05:36:25.466Z,5.90
2018-02-09T05:37:27.934Z,6.67
2018-02-09T05:38:30.428Z,6.65
2018-02-09T05:39:32.894Z,6.80
2018-02-09T05:40:35.384Z,6.50
2018-02-09T05:41:37.846Z,6.17
2018-02-09T05:42:40.328Z,6.10
2018-02-09T05:43:42.800Z,6.07
2018-02-09T05:44:45.286Z,6.55
2018-02-09T05:45:47.758Z,6.10
2018-02-09T05:46:50.250Z,6.07
2018-02-09T05:47:52.723Z,6.00
2018-02-09T05:48:55.221Z,6.05
2018-02-09T05:49:57.704Z,5.90
2018-02-09T05:51:00.200Z,5.65
2018-02-09T05:52:02.686Z,6.17
2018-02-09T05:53:05.159Z,6.05
2018-02-09T05:54:07.632Z,5.70
2018-02-09T05:55:10.134Z,6.93
2018-02-09T05:56:12.604Z,6.30
2018-02-09T05:57:15.073Z,6.67
2018-02-09T05:58:17.565Z,6.65
2018-02-09T05:59:20.043Z,6.00
2018-02-09T06:00:22.545Z,5.25
2018-02-09T06:01:25.034Z,5.78
2018-02-09T06:02:27.514Z,5.82
2018-02-09T06:03:30.009Z,6.20
2018-02-09T06:04:32.495Z,5.57
2018-02-09T06:05:34.969Z,6.47
2018-02-09T06:06:37.452Z,5.78
2018-02-09T06:07:39.930Z,6.05
2018-02-09T06:08:42.417Z,6.28
2018-02-09T06:09:44.908Z,8.88
2018-02-09T06:10:47.386Z,7.53
2018-02-09T06:11:49.865Z,7.50
2018-02-09T06:12:52.343Z,7.95
2018-02-09T06:13:54.818Z,8.25
2018-02-09T06:14:57.324Z,8.02
2018-02-09T06:15:59.798Z,9.20
2018-02-09T06:17:02.272Z,10.00
2018-02-09T06:18:04.746Z,9.63
2018-02-09T06:19:07.230Z,8.80
2018-02-09T06:20:09.715Z,9.10
2018-02-09T06:21:12.319Z,9.75
2018-02-09T06:22:14.808Z,9.77
2018-02-09T06:23:17.295Z,10.07
2018-02-09T06:24:19.810Z,9.70
2018-02-09T06:25:22.296Z,9.03
2018-02-09T06:26:24.775Z,9.27
2018-02-09T06:27:27.556Z,8.70
2018-02-09T06:28:30.042Z,10.37
2018-02-09T06:29:32.533Z,9.27
2018-02-09T06:30:35.024Z,9.40
2018-02-09T06:31:37.515Z,9.20
2018-02-09T06:32:40.046Z,8.20
2018-02-09T06:33:42.546Z,8.95
2018-02-09T06:34:45.040Z,8.98
2018-02-09T06:35:47.544Z,8.43
2018-02-09T06:36:50.038Z,7.60
2018-02-09T06:37:52.539Z,7.97
2018-02-09T06:38:55.023Z,9.03
2018-02-09T06:39:57.536Z,8.00
2018-02-09T06:41:00.038Z,8.50
2018-02-09T06:42:02.535Z,8.27
2018-02-09T06:43:05.046Z,7.83
2018-02-09T06:44:07.568Z,8.00
2018-02-09T06:45:10.072Z,10.50
2018-02-09T06:46:12.572Z,11.27
2018-02-09T06:47:15.050Z,13.48
2018-02-09T06:48:17.545Z,12.68
2018-02-09T06:49:20.026Z,14.83
2018-02-09T06:50:22.521Z,17.50
2018-02-09T06:51:25.003Z,18.85
2018-02-09T06:52:27.489Z,19.80
2018-02-09T06:53:29.993Z,18.85
2018-02-09T06:54:32.494Z,20.05
2018-02-09T06:55:35.060Z,19.30
2018-02-09T06:56:37.538Z,22.20
2018-02-09T06:57:45.626Z,21.90
2018-02-09T06:58:48.106Z,21.12
2018-02-09T06:59:50.615Z,22.95
2018-02-09T07:00:53.104Z,25.08
2018-02-09T07:01:55.607Z,28.67
2018-02-09T07:02:58.116Z,32.65
2018-02-09T07:04:00.631Z,30.55
2018-02-09T07:05:03.142Z,31.55
2018-02-09T07:06:05.651Z,32.85
2018-02-09T07:07:10.987Z,32.28
2018-02-09T07:08:13.505Z,30.60
2018-02-09T07:09:15.996Z,34.15
2018-02-09T07:10:18.506Z,34.50
2018-02-09T07:11:21.010Z,33.45
2018-02-09T07:12:23.544Z,36.78
2018-02-09T07:13:26.044Z,32.75
2018-02-09T07:14:28.535Z,36.17
2018-02-09T07:15:31.047Z,35.50
2018-02-09T07:16:33.521Z,33.97
2018-02-09T07:17:36.008Z,37.13
2018-02-09T07:18:38.554Z,38.00
2018-02-09T07:19:41.032Z,37.53
2018-02-09T07:20:43.524Z,37.10
2018-02-09T07:21:46.064Z,39.53
2018-02-09T07:22:48.659Z,38.20
2018-02-09T07:23:51.139Z,38.63
2018-02-09T07:24:53.643Z,38.35
2018-02-09T07:25:56.119Z,36.88
2018-02-09T07:26:58.608Z,37.25
2018-02-09T07:28:01.108Z,36.25
2018-02-09T07:29:03.596Z,34.40
2018-02-09T07:30:06.089Z,36.05
2018-02-09T07:31:08.578Z,34.00
2018-02-09T07:32:11.110Z,34.20
2018-02-09T07:33:13.720Z,31.30
2018-02-09T07:34:16.211Z,32.90
2018-02-09T07:35:18.692Z,30.65
2018-02-09T07:36:21.184Z,31.02
2018-02-09T07:37:23.663Z,29.90
2018-02-09T07:38:26.165Z,27.67
2018-02-09T07:39:28.643Z,27.00
2018-02-09T07:40:31.133Z,27.55
2018-02-09T07:41:33.803Z,27.40
2018-02-09T07:42:36.305Z,26.73
2018-02-09T07:43:38.778Z,26.20
2018-02-09T07:44:41.254Z,26.00
2018-02-09T07:45:44.068Z,25.23
2018-02-09T07:46:46.576Z,24.50
2018-02-09T07:47:49.054Z,23.92
2018-02-09T07:48:51.552Z,23.23
2018-02-09T07:49:54.119Z,22.80
2018-02-09T07:50:56.608Z,22.55
2018-02-09T07:51:59.105Z,21.70
2018-02-09T07:53:01.906Z,20.17
2018-02-09T07:54:04.421Z,20.98
2018-02-09T07:55:06.917Z,21.12
2018-02-09T07:56:09.409Z,20.35
2018-02-09T07:57:11.888Z,19.85
2018-02-09T07:58:14.381Z,19.75
2018-02-09T07:59:16.956Z,17.85
2018-02-09T08:00:19.435Z,17.92
2018-02-09T08:01:21.934Z,16.70
2018-02-09T08:02:24.430Z,18.48
2018-02-09T08:03:26.927Z,16.85
2018-02-09T08:04:29.423Z,17.23
2018-02-09T08:05:31.920Z,16.67
2018-02-09T08:06:34.398Z,15.52
2018-02-09T08:07:36.874Z,15.93
2018-02-09T08:08:39.377Z,15.45
2018-02-09T08:09:41.852Z,14.55
2018-02-09T08:10:44.344Z,14.40
2018-02-09T08:11:46.874Z,13.95
2018-02-09T08:12:49.392Z,13.55
2018-02-09T08:13:51.889Z,13.38
2018-02-09T08:14:54.366Z,13.32
2018-02-09T08:15:56.856Z,13.38
2018-02-09T08:16:59.346Z,13.23
2018-02-09T08:18:01.833Z,13.13
2018-02-09T08:19:04.316Z,12.47
2018-02-09T08:20:06.825Z,12.70
2018-02-09T08:21:09.302Z,13.52
2018-02-09T08:22:11.785Z,11.75
2018-02-09T08:23:14.291Z,12.82
2018-02-09T08:24:16.777Z,11.80
2018-02-09T08:25:19.251Z,12.67
2018-02-09T08:26:21.736Z,12.30
2018-02-09T08:27:24.207Z,12.50
2018-02-09T08:28:26.693Z,11.47
2018-02-09T08:29:29.177Z,11.40
2018-02-09T08:30:31.647Z,11.47
2018-02-09T08:31:34.149Z,11.40
2018-02-09T08:32:36.635Z,11.13
2018-02-09T08:33:39.119Z,11.30
2018-02-09T08:34:41.608Z,10.60
2018-02-09T08:35:44.094Z,10.90
2018-02-09T08:36:46.572Z,11.40
2018-02-09T08:37:49.064Z,10.33
2018-02-09T08:38:51.551Z,10.83
2018-02-09T08:39:54.022Z,9.83
2018-02-09T08:40:56.501Z,10.23
2018-02-09T08:41:58.966Z,10.00
2018-02-09T08:43:01.462Z,10.63
2018-02-09T08:44:03.957Z,10.27
2018-02-09T08:45:06.469Z,9.37
2018-02-09T08:46:08.988Z,9.87
2018-02-09T08:47:11.484Z,10.00
2018-02-09T08:48:14.001Z,9.10
2018-02-09T08:49:16.505Z,9.67
2018-02-09T08:50:18.970Z,8.73
2018-02-09T08:51:21.439Z,8.90
2018-02-09T08:52:23.937Z,9.47
2018-02-09T08:53:26.417Z,9.30
2018-02-09T08:54:28.883Z,8.77
2018-02-09T08:55:31.364Z,8.57
2018-02-09T08:56:33.835Z,8.87
2018-02-09T08:57:36.320Z,8.70
2018-02-09T08:58:38.810Z,8.97
2018-02-09T08:59:41.311Z,8.43
2018-02-09T09:00:43.782Z,8.37
2018-02-09T09:01:46.246Z,8.20
2018-02-09T09:02:48.738Z,8.43
2018-02-09T09:03:51.279Z,7.27
2018-02-09T09:04:53.761Z,8.17
2018-02-09T09:05:56.240Z,8.60
2018-02-09T09:06:58.756Z,8.20
2018-02-09T09:08:01.227Z,8.70
2018-02-09T09:09:03.705Z,9.87
2018-02-09T09:10:06.296Z,9.27
2018-02-09T09:11:08.772Z,9.37
2018-02-09T09:12:11.253Z,11.00
2018-02-09T09:13:13.741Z,11.30
2018-02-09T09:14:16.233Z,12.00
2018-02-09T09:15:18.725Z,10.80
2018-02-09T09:16:21.194Z,10.93
2018-02-09T09:17:23.662Z,10.70
2018-02-09T09:18:26.151Z,10.53
2018-02-09T09:19:28.633Z,10.80
2018-02-09T09:20:31.108Z,10.17
2018-02-09T09:21:33.578Z,11.17
2018-02-09T09:22:36.065Z,10.10
2018-02-09T09:23:38.541Z,9.80
2018-02-09T09:24:41.006Z,8.70
2018-02-09T09:25:43.479Z,10.00
2018-02-09T09:26:45.951Z,9.13
2018-02-09T09:27:48.419Z,9.57
2018-02-09T09:28:50.891Z,9.50
2018-02-09T09:29:53.371Z,8.80
2018-02-09T09:30:55.834Z,9.00
2018-02-09T09:31:58.308Z,9.90
2018-02-09T09:33:00.770Z,9.97
2018-02-09T09:34:03.253Z,9.23
2018-02-09T09:35:05.714Z,9.50
2018-02-09T09:36:08.196Z,8.93
2018-02-09T09:37:10.670Z,8.67
2018-02-09T09:38:13.144Z,9.00
2018-02-09T09:39:15.606Z,9.50
2018-02-09T09:40:18.081Z,8.50
2018-02-09T09:41:20.544Z,8.83
2018-02-09T09:42:23.006Z,8.17
2018-02-09T09:43:25.484Z,8.37
2018-02-09T09:44:27.960Z,9.57
2018-02-09T09:45:30.440Z,8.93
2018-02-09T09:46:32.921Z,8.60
2018-02-09T09:47:35.409Z,8.67
2018-02-09T09:48:37.940Z,8.93
2018-02-09T09:49:40.424Z,9.73
2018-02-09T09:50:42.901Z,8.90
2018-02-09T09:51:45.371Z,10.80
2018-02-09T09:52:47.843Z,12.33
2018-02-09T09:53:50.328Z,11.40
2018-02-09T09:54:52.802Z,10.20
2018-02-09T09:55:55.285Z,10.40
2018-02-09T09:56:57.769Z,10.30
2018-02-09T09:58:00.252Z,11.40
2018-02-09T09:59:02.741Z,13.90
2018-02-09T10:00:05.236Z,12.77
2018-02-09T10:01:13.277Z,13.10
2018-02-09T10:02:27.498Z,11.93
2018-02-09T10:03:29.980Z,11.63
2018-02-09T10:04:32.464Z,10.77
2018-02-09T10:05:34.949Z,11.30
2018-02-09T10:06:37.419Z,10.77
2018-02-09T10:07:39.939Z,10.17
2018-02-09T10:08:42.406Z,10.03
2018-02-09T10:09:44.933Z,9.70
2018-02-09T10:10:47.424Z,9.93
2018-02-09T10:11:49.890Z,8.63
2018-02-09T10:12:52.373Z,10.10
2018-02-09T10:13:54.852Z,9.83
2018-02-09T10:14:57.315Z,9.30
2018-02-09T10:15:59.798Z,9.30
2018-02-09T10:17:02.267Z,9.17
2018-02-09T10:18:04.739Z,8.40
2018-02-09T10:19:07.221Z,9.23
2018-02-09T10:20:09.747Z,9.43
2018-02-09T10:21:12.244Z,9.17
2018-02-09T10:22:14.733Z,9.07
2018-02-09T10:23:17.223Z,8.80
2018-02-09T10:24:19.703Z,8.70
2018-02-09T10:25:22.201Z,9.10
2018-02-09T10:26:24.681Z,9.17
2018-02-09T10:27:27.163Z,9.83
2018-02-09T10:28:29.640Z,9.20
2018-02-09T10:29:32.120Z,9.00
2018-02-09T10:30:34.601Z,7.90
2018-02-09T10:31:37.085Z,8.60
2018-02-09T10:32:39.569Z,8.70
2018-02-09T10:33:42.044Z,8.47
2018-02-09T10:34:44.530Z,8.33
2018-02-09T10:35:47.090Z,8.87
2018-02-09T10:36:49.555Z,8.87
2018-02-09T10:37:52.098Z,8.40
2018-02-09T10:38:54.553Z,8.80
2018-02-09T10:39:57.033Z,8.87
2018-02-09T10:40:59.502Z,8.47
2018-02-09T10:42:01.984Z,8.70
2018-02-09T10:43:04.446Z,7.63
2018-02-09T10:44:06.920Z,8.40
2018-02-09T10:45:09.401Z,8.57
2018-02-09T10:46:11.872Z,8.57
2018-02-09T10:47:14.366Z,7.90
2018-02-09T10:48:16.844Z,8.80
2018-02-09T10:49:19.320Z,8.37
2018-02-09T10:50:21.809Z,8.20
2018-02-09T10:51:24.297Z,7.70
2018-02-09T10:52:26.768Z,8.67
2018-02-09T10:53:29.234Z,7.60
2018-02-09T10:54:31.708Z,7.90
2018-02-09T10:55:34.170Z,7.77
2018-02-09T10:56:36.699Z,8.50
2018-02-09T10:57:39.160Z,8.67
2018-02-09T10:58:41.626Z,8.03
2018-02-09T10:59:44.105Z,8.20
2018-02-09T11:00:52.301Z,8.33
2018-02-09T11:01:54.793Z,7.80
2018-02-09T11:02:57.268Z,8.67
2018-02-09T11:03:59.735Z,8.00
2018-02-09T11:05:02.206Z,7.20
2018-02-09T11:06:04.670Z,7.30
2018-02-09T11:07:07.150Z,8.67
2018-02-09T11:08:09.612Z,7.57
2018-02-09T11:09:12.081Z,7.83
2018-02-09T11:10:35.437Z,7.73
2018-02-09T11:11:37.903Z,8.27
2018-02-09T11:12:43.306Z,7.90
2018-02-09T11:13:45.896Z,7.70
2018-02-09T11:14:48.401Z,8.60
2018-02-09T11:15:50.884Z,8.03
2018-02-09T11:16:53.358Z,7.77
2018-02-09T11:17:55.839Z,8.10
2018-02-09T11:18:58.319Z,7.87
2018-02-09T11:20:00.829Z,8.07
2018-02-09T11:21:03.299Z,8.50
2018-02-09T11:22:05.866Z,8.60
2018-02-09T11:23:08.343Z,7.20
2018-02-09T11:24:10.806Z,7.60
2018-02-09T11:25:13.309Z,8.00
2018-02-09T11:26:15.805Z,8.23
2018-02-09T11:27:18.266Z,8.37
2018-02-09T11:28:20.730Z,7.40
2018-02-09T11:29:23.195Z,8.10
2018-02-09T11:30:25.696Z,8.17
2018-02-09T11:31:28.173Z,8.10
2018-02-09T11:32:30.648Z,8.03
2018-02-09T11:33:33.153Z,7.93
2018-02-09T11:34:35.628Z,8.20
2018-02-09T11:35:38.114Z,7.80
2018-02-09T11:36:40.597Z,8.37
2018-02-09T11:37:43.077Z,7.93
2018-02-09T11:38:45.544Z,8.27
2018-02-09T11:39:48.054Z,8.53
2018-02-09T11:40:50.546Z,8.40
2018-02-09T11:41:53.015Z,8.20
2018-02-09T11:42:55.482Z,8.57
2018-02-09T11:43:57.951Z,8.10
2018-02-09T11:45:00.415Z,9.10
2018-02-09T11:46:02.921Z,8.93
2018-02-09T11:47:05.401Z,8.30
2018-02-09T11:48:07.886Z,8.27
2018-02-09T11:49:10.375Z,8.60
2018-02-09T11:50:12.858Z,8.10
2018-02-09T11:51:15.364Z,8.47
2018-02-09T11:52:17.838Z,8.23
2018-02-09T11:53:20.320Z,8.30
2018-02-09T11:54:22.805Z,8.53
2018-02-09T11:55:25.288Z,8.10
2018-02-09T11:56:27.785Z,8.00
2018-02-09T11:57:30.374Z,7.07
2018-02-09T11:58:32.841Z,8.13
2018-02-09T11:59:35.298Z,8.13
2018-02-09T12:00:37.808Z,8.10
2018-02-09T12:01:40.301Z,7.97
2018-02-09T12:02:42.774Z,10.07
2018-02-09T12:03:45.271Z,9.60
2018-02-09T12:04:47.734Z,9.23
2018-02-09T12:05:50.203Z,9.10
2018-02-09T12:06:52.709Z,10.20
2018-02-09T12:07:55.179Z,9.13
2018-02-09T12:08:57.646Z,8.70
2018-02-09T12:10:00.153Z,9.17
2018-02-09T12:11:02.628Z,9.40
2018-02-09T12:12:05.133Z,8.70
2018-02-09T12:13:07.608Z,9.17
2018-02-09T12:14:10.071Z,8.97
2018-02-09T12:15:12.539Z,8.50
2018-02-09T12:16:15.003Z,9.83
2018-02-09T12:17:17.509Z,10.20
2018-02-09T12:18:19.975Z,9.00
2018-02-09T12:19:22.443Z,9.63
2018-02-09T12:20:24.925Z,9.53
2018-02-09T12:21:27.443Z,9.00
2018-02-09T12:22:29.941Z,8.27
2018-02-09T12:23:32.425Z,8.73
2018-02-09T12:24:34.905Z,9.00
2018-02-09T12:25:37.397Z,8.70
2018-02-09T12:26:39.867Z,8.30
2018-02-09T12:27:42.354Z,7.90
2018-02-09T12:28:44.841Z,8.10
2018-02-09T12:29:47.333Z,7.60
2018-02-09T12:30:49.830Z,7.50
2018-02-09T12:31:52.299Z,8.00
2018-02-09T12:32:54.786Z,7.80
2018-02-09T12:33:57.265Z,7.97
2018-02-09T12:34:59.738Z,7.47
2018-02-09T12:36:02.221Z,7.53
2018-02-09T12:37:04.766Z,7.13
2018-02-09T12:38:07.282Z,7.30
2018-02-09T12:39:09.765Z,6.87
2018-02-09T12:40:12.240Z,9.33
2018-02-09T12:41:14.718Z,9.90
2018-02-09T12:42:17.182Z,10.67
2018-02-09T12:43:19.716Z,12.23
2018-02-09T12:44:22.197Z,10.10
2018-02-09T12:45:24.678Z,13.27
2018-02-09T12:46:27.164Z,16.23
2018-02-09T12:47:29.640Z,9.40
2018-02-09T12:48:32.126Z,9.63
2018-02-09T12:49:34.608Z,9.70
2018-02-09T12:50:37.089Z,9.73
2018-02-09T12:51:39.617Z,10.67
2018-02-09T12:52:42.066Z,10.20
2018-02-09T12:53:44.557Z,11.60
2018-02-09T12:54:47.049Z,13.30
2018-02-09T12:55:49.533Z,13.20
2018-02-09T12:56:52.023Z,13.40
2018-02-09T12:57:54.512Z,12.27
2018-02-09T12:58:57.002Z,15.50
2018-02-09T12:59:59.484Z,13.90
2018-02-09T13:01:01.976Z,12.90
2018-02-09T13:02:04.455Z,14.40
2018-02-09T13:03:06.937Z,13.80
2018-02-09T13:04:09.427Z,15.27
2018-02-09T13:05:11.927Z,15.20
2018-02-09T13:06:14.413Z,12.60
2018-02-09T13:07:16.897Z,13.90
2018-02-09T13:08:19.402Z,15.57
2018-02-09T13:09:22.044Z,13.47
2018-02-09T13:10:24.530Z,13.63
2018-02-09T13:11:26.999Z,14.13
2018-02-09T13:12:41.285Z,14.53
2018-02-09T13:13:43.775Z,15.87
2018-02-09T13:14:49.991Z,16.03
2018-02-09T13:15:52.467Z,16.07
2018-02-09T13:16:55.053Z,15.10
2018-02-09T13:17:58.034Z,16.13
2018-02-09T13:19:00.557Z,16.73
2018-02-09T13:20:03.348Z,16.10
2018-02-09T13:21:05.888Z,16.40
2018-02-09T13:22:08.374Z,14.17
2018-02-09T13:23:22.818Z,14.87
2018-02-09T13:24:25.668Z,15.53
2018-02-09T13:25:28.546Z,15.43
2018-02-09T13:26:31.201Z,14.03
2018-02-09T13:27:33.753Z,15.60
2018-02-09T13:28:48.114Z,14.33
2018-02-09T13:29:50.833Z,13.73
2018-02-09T13:30:53.341Z,13.50
2018-02-09T13:31:55.868Z,14.50
2018-02-09T13:33:10.101Z,15.20
2018-02-09T13:34:12.639Z,13.37
2018-02-09T13:35:15.157Z,14.50
2018-02-09T13:36:18.883Z,13.57
2018-02-09T13:37:33.138Z,11.53
2018-02-09T13:38:35.621Z,13.80
2018-02-09T13:39:38.109Z,12.27
2018-02-09T13:40:40.579Z,12.00
2018-02-09T13:41:43.113Z,12.73